Time;durP1;ratioP1;P1;durP2;ratioP2;P2;SDS_P1;SDS_P2;PMS_P1;PMS_P2;Temp;Humidity;BMP_temperature;BMP_pressure;BME280_temperature;BME280_humidity;BME280_pressure;Samples;Min_cycle;Max_cycle;Signal;HPM_P1;HPM_P2
2023/05/13 00:00:51;;;;;;;4.88;4.25;;;14.90;64.60;;;;;;5012350;28;20050;-70
2023/05/13 00:03:17;;;;;;;5.15;4.63;;;14.90;64.70;;;;;;4996446;28;20552;-70
2023/05/13 00:05:43;;;;;;;5.65;4.68;;;14.90;64.90;;;;;;5021193;28;20440;-70
2023/05/13 00:08:08;;;;;;;5.47;4.97;;;14.80;65.00;;;;;;5015346;28;20045;-70
2023/05/13 00:10:34;;;;;;;5.90;4.47;;;14.80;65.10;;;;;;5031743;28;20049;-70
2023/05/13 00:13:00;;;;;;;7.35;4.55;;;14.80;65.20;;;;;;5029226;28;20029;-70
2023/05/13 00:15:26;;;;;;;5.18;4.68;;;14.80;65.40;;;;;;4979453;28;20120;-70
2023/05/13 00:17:52;;;;;;;6.25;4.78;;;14.70;65.60;;;;;;5012279;28;20397;-70
2023/05/13 00:20:18;;;;;;;7.13;6.20;;;14.70;65.70;;;;;;5024440;28;20041;-70
2023/05/13 00:22:44;;;;;;;6.20;5.00;;;14.70;65.60;;;;;;5031727;28;20046;-70
2023/05/13 00:25:10;;;;;;;6.85;5.57;;;14.70;65.70;;;;;;5031203;28;20378;-70
2023/05/13 00:27:36;;;;;;;7.13;5.20;;;14.60;65.80;;;;;;5030831;28;20034;-71
2023/05/13 00:30:02;;;;;;;7.65;5.40;;;14.60;65.90;;;;;;5025675;28;20125;-70
2023/05/13 00:32:27;;;;;;;6.43;5.20;;;14.60;66.10;;;;;;5011807;28;20149;-70
2023/05/13 00:34:53;;;;;;;7.45;6.60;;;14.50;66.20;;;;;;5031175;28;20125;-70
2023/05/13 00:37:19;;;;;;;5.63;4.70;;;14.50;66.10;;;;;;5031865;28;20045;-70
2023/05/13 00:39:44;;;;;;;5.75;5.15;;;14.50;66.10;;;;;;5031215;28;20540;-70
2023/05/13 00:42:11;;;;;;;7.45;5.88;;;14.40;66.30;;;;;;5031460;28;20111;-70
2023/05/13 00:44:37;;;;;;;6.90;5.35;;;14.40;66.50;;;;;;5015954;28;20528;-70
2023/05/13 00:47:04;;;;;;;5.90;5.07;;;14.40;66.60;;;;;;5012034;28;20400;-70
2023/05/13 00:49:32;;;;;;;6.78;5.38;;;14.40;66.80;;;;;;5030253;28;20040;-71
2023/05/13 00:51:58;;;;;;;7.20;5.90;;;14.30;66.90;;;;;;5032254;28;20037;-70
2023/05/13 00:54:24;;;;;;;6.85;6.15;;;14.30;66.80;;;;;;5024641;28;20042;-70
2023/05/13 00:56:53;;;;;;;7.25;6.22;;;14.30;66.80;;;;;;5016430;28;20049;-70
2023/05/13 00:59:20;;;;;;;7.25;6.45;;;14.20;66.90;;;;;;5022560;28;20131;-70
2023/05/13 01:01:56;;;;;;;7.47;5.88;;;14.20;67.10;;;;;;5034216;28;20049;-70
2023/05/13 01:04:50;;;;;;;8.95;7.25;;;14.20;67.20;;;;;;5015259;28;20135;-70
2023/05/13 01:07:25;;;;;;;7.32;6.05;;;14.20;67.10;;;;;;5034122;28;20049;-70
2023/05/13 01:10:20;;;;;;;6.70;6.00;;;14.10;67.40;;;;;;5018396;28;20099;-70
2023/05/13 01:12:47;;;;;;;8.85;6.28;;;14.10;67.50;;;;;;5019562;28;20046;-70
2023/05/13 01:15:25;;;;;;;7.90;5.53;;;14.10;67.70;;;;;;5033393;28;20072;-70
2023/05/13 01:18:00;;;;;;;6.90;6.03;;;14.00;67.80;;;;;;5015221;28;20172;-70
2023/05/13 01:20:28;;;;;;;7.32;6.40;;;14.00;67.90;;;;;;4998723;28;20374;-70
2023/05/13 01:22:55;;;;;;;6.88;6.18;;;14.00;68.00;;;;;;5033000;28;20378;-70
2023/05/13 01:25:21;;;;;;;7.40;5.88;;;13.90;68.00;;;;;;5030432;28;20132;-70
2023/05/13 01:27:47;;;;;;;9.23;6.75;;;14.00;68.10;;;;;;5034630;28;20504;-70
2023/05/13 01:30:13;;;;;;;7.40;6.30;;;13.90;68.10;;;;;;5017470;28;20085;-70
2023/05/13 01:32:39;;;;;;;7.55;6.63;;;13.90;68.10;;;;;;5019437;28;20052;-70
2023/05/13 01:35:07;;;;;;;7.03;6.32;;;13.90;68.10;;;;;;5016754;28;20045;-70
2023/05/13 01:37:35;;;;;;;7.88;6.75;;;13.90;68.20;;;;;;5030196;28;20045;-72
2023/05/13 01:40:01;;;;;;;9.27;6.30;;;13.90;68.30;;;;;;5018014;28;20037;-71
2023/05/13 01:42:29;;;;;;;7.53;6.78;;;13.80;68.30;;;;;;5004361;28;20176;-70
2023/05/13 01:44:54;;;;;;;7.95;6.75;;;13.80;68.40;;;;;;5033398;28;20052;-70
2023/05/13 01:47:20;;;;;;;7.57;6.50;;;13.80;68.90;;;;;;5016042;28;20112;-70
2023/05/13 01:49:46;;;;;;;7.07;6.35;;;13.80;68.60;;;;;;4998244;28;20493;-70
2023/05/13 01:52:11;;;;;;;7.35;6.35;;;13.70;68.60;;;;;;5026416;28;20514;-70
2023/05/13 01:54:37;;;;;;;7.10;6.43;;;13.70;68.70;;;;;;5017688;28;20042;-70
2023/05/13 01:57:03;;;;;;;7.10;6.05;;;13.70;68.80;;;;;;5032785;28;20056;-71
2023/05/13 01:59:29;;;;;;;7.63;6.28;;;13.70;68.90;;;;;;5032577;28;20117;-71
2023/05/13 02:01:54;;;;;;;7.85;7.00;;;13.70;69.00;;;;;;5020004;28;20489;-70
2023/05/13 02:04:20;;;;;;;8.23;6.55;;;13.70;69.00;;;;;;5020176;28;20053;-70
2023/05/13 02:06:46;;;;;;;6.82;6.13;;;13.70;69.10;;;;;;5033537;28;20073;-70
2023/05/13 02:09:12;;;;;;;7.72;6.90;;;13.60;69.10;;;;;;5015280;28;20048;-70
2023/05/13 02:11:38;;;;;;;8.30;7.47;;;13.60;69.10;;;;;;5001774;28;20432;-70
2023/05/13 02:14:04;;;;;;;8.77;6.45;;;13.60;69.20;;;;;;5020806;28;20045;-70
2023/05/13 02:16:30;;;;;;;8.48;7.20;;;13.60;69.30;;;;;;5033865;28;20096;-70
2023/05/13 02:18:56;;;;;;;8.00;6.72;;;13.50;69.30;;;;;;5033467;28;20047;-70
2023/05/13 02:21:22;;;;;;;10.27;7.93;;;13.50;69.40;;;;;;5024796;28;20108;-70
2023/05/13 02:23:48;;;;;;;7.97;7.03;;;13.50;69.50;;;;;;5014037;28;20046;-70
2023/05/13 02:26:13;;;;;;;7.32;6.43;;;13.50;69.60;;;;;;4997367;28;20393;-70
2023/05/13 02:28:40;;;;;;;8.80;7.88;;;13.50;69.60;;;;;;5024747;28;20058;-70
2023/05/13 02:31:06;;;;;;;8.68;7.85;;;13.40;69.60;;;;;;4981379;28;20100;-70
2023/05/13 02:33:32;;;;;;;9.90;8.88;;;13.40;69.90;;;;;;5013665;28;20046;-70
2023/05/13 02:35:57;;;;;;;8.73;7.82;;;13.40;69.50;;;;;;4997055;28;20100;-70
2023/05/13 02:38:23;;;;;;;8.57;7.30;;;13.40;69.50;;;;;;5005983;28;20066;-70
2023/05/13 02:40:49;;;;;;;11.55;9.82;;;13.30;69.50;;;;;;5016752;28;20485;-70
2023/05/13 02:43:15;;;;;;;8.90;7.43;;;13.30;69.60;;;;;;5028503;28;20508;-70
2023/05/13 02:45:46;;;;;;;7.93;7.13;;;13.30;69.70;;;;;;5017886;28;20099;-70
2023/05/13 02:48:12;;;;;;;8.50;7.70;;;13.30;70.00;;;;;;5032805;28;20056;-70
2023/05/13 02:50:39;;;;;;;10.10;8.32;;;13.20;70.00;;;;;;5030657;28;20049;-71
2023/05/13 02:53:05;;;;;;;8.77;7.03;;;13.20;70.10;;;;;;5013560;28;20401;-70
2023/05/13 02:55:30;;;;;;;8.80;7.90;;;13.20;70.20;;;;;;5025399;28;20046;-70
2023/05/13 02:57:56;;;;;;;8.30;7.18;;;13.20;70.20;;;;;;5013195;28;20542;-70
2023/05/13 03:00:22;;;;;;;8.80;7.38;;;13.20;70.30;;;;;;4999060;28;20053;-70
2023/05/13 03:02:48;;;;;;;8.88;7.90;;;13.20;70.40;;;;;;5013784;28;20068;-70
2023/05/13 03:05:13;;;;;;;7.95;6.90;;;13.20;70.40;;;;;;5013167;28;20050;-70
2023/05/13 03:07:39;;;;;;;8.35;7.55;;;13.20;70.40;;;;;;5013152;28;20048;-70
2023/05/13 03:10:05;;;;;;;10.18;7.50;;;13.20;70.50;;;;;;5016894;28;20421;-70
2023/05/13 03:12:31;;;;;;;10.95;9.48;;;13.10;70.50;;;;;;5015866;28;20042;-70
2023/05/13 03:14:57;;;;;;;9.98;8.82;;;13.10;70.40;;;;;;5012659;28;20391;-69
2023/05/13 03:17:24;;;;;;;9.75;7.15;;;13.10;70.40;;;;;;4996866;28;20033;-69
2023/05/13 03:19:50;;;;;;;9.50;7.55;;;13.00;70.50;;;;;;5013365;28;20045;-69
2023/05/13 03:22:16;;;;;;;8.38;7.40;;;13.10;70.60;;;;;;5013684;28;20477;-69
2023/05/13 03:24:42;;;;;;;9.38;7.88;;;13.00;70.60;;;;;;5012698;28;20050;-70
2023/05/13 03:27:07;;;;;;;10.40;7.97;;;13.10;70.70;;;;;;4996329;28;20115;-70
2023/05/13 03:29:33;;;;;;;11.88;8.50;;;13.00;70.70;;;;;;5014973;28;20062;-70
2023/05/13 03:31:59;;;;;;;8.60;7.70;;;13.00;70.70;;;;;;4999449;28;20567;-70
2023/05/13 03:34:25;;;;;;;9.43;7.53;;;13.00;70.70;;;;;;5045528;28;20057;-70
2023/05/13 03:36:50;;;;;;;8.77;7.88;;;13.00;70.70;;;;;;5025128;28;20060;-70
2023/05/13 03:39:16;;;;;;;8.80;7.90;;;13.00;70.80;;;;;;5031282;28;20038;-70
2023/05/13 03:41:42;;;;;;;9.38;8.45;;;13.00;70.80;;;;;;5018594;28;20053;-70
2023/05/13 03:44:07;;;;;;;10.15;8.10;;;13.00;70.90;;;;;;5012342;28;20477;-70
2023/05/13 03:46:33;;;;;;;10.15;7.45;;;13.00;70.90;;;;;;5026625;28;20051;-70
2023/05/13 03:48:59;;;;;;;9.13;7.95;;;12.90;70.90;;;;;;4999327;28;20480;-70
2023/05/13 03:51:24;;;;;;;8.60;7.38;;;12.90;70.90;;;;;;5020804;28;20037;-70
2023/05/13 03:53:50;;;;;;;9.63;8.48;;;12.90;70.90;;;;;;5005791;28;20073;-70
2023/05/13 03:56:16;;;;;;;10.80;8.95;;;12.90;70.90;;;;;;5031617;28;20041;-70
2023/05/13 03:58:44;;;;;;;9.27;7.97;;;12.90;70.90;;;;;;5031769;28;20447;-70
2023/05/13 04:01:10;;;;;;;8.60;7.72;;;12.90;71.00;;;;;;5011910;28;20036;-70
2023/05/13 04:03:36;;;;;;;9.40;8.40;;;12.90;71.00;;;;;;5012313;28;20128;-71
2023/05/13 04:06:01;;;;;;;10.35;8.73;;;12.90;71.10;;;;;;5012022;28;20400;-70
2023/05/13 04:08:27;;;;;;;10.00;8.95;;;12.80;71.20;;;;;;5012036;28;20050;-70
2023/05/13 04:10:54;;;;;;;9.63;8.63;;;12.80;71.20;;;;;;5017974;28;20037;-70
2023/05/13 04:13:20;;;;;;;9.05;8.18;;;12.80;71.30;;;;;;5032005;28;20060;-70
2023/05/13 04:15:45;;;;;;;9.85;8.85;;;12.80;71.40;;;;;;5026960;28;20385;-69
2023/05/13 04:18:14;;;;;;;9.38;8.48;;;12.80;71.40;;;;;;4997305;28;20046;-69
2023/05/13 04:20:40;;;;;;;10.30;9.27;;;12.80;71.50;;;;;;5012302;28;20122;-69
2023/05/13 04:23:06;;;;;;;11.80;10.60;;;12.80;71.60;;;;;;4996010;28;20484;-69
2023/05/13 04:25:33;;;;;;;11.48;10.00;;;12.80;71.70;;;;;;5011848;28;20045;-69
2023/05/13 04:27:59;;;;;;;9.63;8.57;;;12.80;71.80;;;;;;5032176;28;20403;-69
2023/05/13 04:30:25;;;;;;;10.95;9.80;;;12.80;71.90;;;;;;5013827;28;20066;-69
2023/05/13 04:32:50;;;;;;;12.93;11.55;;;12.80;72.00;;;;;;5016140;28;20489;-69
2023/05/13 04:35:16;;;;;;;12.45;10.52;;;12.80;72.10;;;;;;5016023;28;20057;-69
2023/05/13 04:37:42;;;;;;;10.65;9.60;;;12.80;72.30;;;;;;5016543;28;20041;-69
2023/05/13 04:40:08;;;;;;;12.32;10.90;;;12.80;72.90;;;;;;5010883;28;20095;-69
2023/05/13 04:42:34;;;;;;;13.25;10.80;;;12.70;72.60;;;;;;4999890;28;20103;-69
2023/05/13 04:45:00;;;;;;;13.32;11.38;;;12.80;72.80;;;;;;5015910;28;20057;-69
2023/05/13 04:47:25;;;;;;;13.55;12.15;;;12.70;72.90;;;;;;5015937;28;20451;-69
2023/05/13 04:49:51;;;;;;;14.80;11.68;;;12.70;73.10;;;;;;4999174;28;20045;-69
2023/05/13 04:52:18;;;;;;;11.93;10.82;;;12.70;73.30;;;;;;5027058;28;20033;-69
2023/05/13 04:54:44;;;;;;;15.20;12.82;;;12.70;73.40;;;;;;5034753;28;20485;-69
2023/05/13 04:57:09;;;;;;;14.30;12.57;;;12.70;73.80;;;;;;5035176;28;20048;-66
2023/05/13 04:59:35;;;;;;;17.58;13.95;;;12.70;74.10;;;;;;5035064;28;20052;-66
2023/05/13 05:02:01;;;;;;;15.43;12.68;;;12.70;74.40;;;;;;5031828;28;20397;-66
2023/05/13 05:04:27;;;;;;;15.20;12.95;;;12.70;74.70;;;;;;5015138;28;20071;-66
2023/05/13 05:06:52;;;;;;;17.23;13.18;;;12.70;75.10;;;;;;5015310;28;20049;-66
2023/05/13 05:09:18;;;;;;;13.57;12.18;;;12.70;75.70;;;;;;5015081;28;21012;-67
2023/05/13 05:11:44;;;;;;;13.45;12.02;;;12.70;76.10;;;;;;5024009;28;20033;-67
2023/05/13 05:14:10;;;;;;;14.00;12.55;;;12.80;76.80;;;;;;5015833;28;20045;-67
2023/05/13 05:16:36;;;;;;;14.95;12.70;;;12.90;76.40;;;;;;5033057;28;20041;-67
2023/05/13 05:19:01;;;;;;;17.48;12.98;;;13.00;76.50;;;;;;5034672;28;20124;-67
2023/05/13 05:21:27;;;;;;;14.00;12.55;;;13.10;76.40;;;;;;5034301;28;20045;-68
2023/05/13 05:23:52;;;;;;;14.88;13.10;;;13.10;76.10;;;;;;5033611;28;20067;-67
2023/05/13 05:26:18;;;;;;;14.70;12.30;;;13.20;75.90;;;;;;5018123;28;20095;-67
2023/05/13 05:28:44;;;;;;;13.73;11.82;;;13.20;75.80;;;;;;5015329;28;20112;-67
2023/05/13 05:31:10;;;;;;;15.02;11.85;;;13.30;75.80;;;;;;5014607;28;20042;-67
2023/05/13 05:33:36;;;;;;;14.20;11.68;;;13.30;75.90;;;;;;5031234;28;20096;-67
2023/05/13 05:36:02;;;;;;;14.15;12.13;;;13.40;76.30;;;;;;5034108;28;20080;-67
2023/05/13 05:38:28;;;;;;;15.00;11.02;;;13.50;76.40;;;;;;5017629;28;20073;-67
2023/05/13 05:40:54;;;;;;;14.45;11.10;;;13.50;76.50;;;;;;5033293;28;20044;-67
2023/05/13 05:43:20;;;;;;;15.02;10.73;;;13.80;76.50;;;;;;5002848;28;20042;-67
2023/05/13 05:45:46;;;;;;;11.80;10.13;;;14.00;76.30;;;;;;5014463;28;20053;-67
2023/05/13 05:48:11;;;;;;;11.70;9.15;;;14.20;75.80;;;;;;4989537;28;20053;-67
2023/05/13 05:50:37;;;;;;;10.48;8.82;;;14.50;75.50;;;;;;5014170;28;20054;-67
2023/05/13 05:53:03;;;;;;;13.68;10.15;;;14.70;74.90;;;;;;5015590;28;20040;-67
2023/05/13 05:55:30;;;;;;;13.35;10.50;;;15.00;74.20;;;;;;5019728;28;20117;-67
2023/05/13 05:57:57;;;;;;;11.20;9.90;;;15.30;73.40;;;;;;5014007;28;20116;-68
2023/05/13 06:00:23;;;;;;;9.98;8.30;;;15.60;72.50;;;;;;5019824;28;20041;-67
2023/05/13 06:02:49;;;;;;;9.13;8.07;;;15.90;71.70;;;;;;5018997;28;20541;-67
2023/05/13 06:05:15;;;;;;;11.95;7.68;;;16.20;70.90;;;;;;5021965;28;20444;-67
2023/05/13 06:07:41;;;;;;;9.68;7.93;;;16.50;69.70;;;;;;5032555;28;20052;-67
2023/05/13 06:10:07;;;;;;;12.77;8.15;;;16.80;69.10;;;;;;5013816;28;20030;-67
2023/05/13 06:12:33;;;;;;;9.25;7.15;;;17.20;67.80;;;;;;4998511;28;20042;-65
2023/05/13 06:15:00;;;;;;;8.73;6.63;;;17.50;66.50;;;;;;5013577;28;20049;-66
2023/05/13 06:17:26;;;;;;;10.07;7.22;;;17.80;65.60;;;;;;5013981;28;20071;-66
2023/05/13 06:19:51;;;;;;;8.65;7.15;;;18.00;63.60;;;;;;5013470;28;20505;-67
2023/05/13 06:22:17;;;;;;;8.48;6.90;;;18.20;63.00;;;;;;5001944;28;20073;-67
2023/05/13 06:24:43;;;;;;;10.88;6.75;;;18.40;62.50;;;;;;4997750;28;20045;-67
2023/05/13 06:27:10;;;;;;;11.20;6.35;;;18.50;61.50;;;;;;5022313;28;20048;-67
2023/05/13 06:29:37;;;;;;;8.52;6.95;;;18.70;60.60;;;;;;5013630;28;20099;-66
2023/05/13 06:32:03;;;;;;;8.65;6.00;;;18.90;60.00;;;;;;5030069;28;20076;-66
2023/05/13 06:34:28;;;;;;;8.80;5.78;;;19.00;59.30;;;;;;5032932;28;20111;-66
2023/05/13 06:36:54;;;;;;;7.53;5.93;;;19.10;58.90;;;;;;5026779;28;20034;-66
2023/05/13 06:39:20;;;;;;;8.68;6.60;;;19.20;58.50;;;;;;4997280;28;20053;-67
2023/05/13 06:41:46;;;;;;;7.72;6.47;;;19.40;58.30;;;;;;5013629;28;20397;-67
2023/05/13 06:44:11;;;;;;;9.55;6.40;;;19.70;58.20;;;;;;5016575;28;20408;-67
2023/05/13 06:46:37;;;;;;;8.50;6.32;;;19.90;57.60;;;;;;5033057;28;20052;-66
2023/05/13 06:49:03;;;;;;;7.68;5.40;;;20.10;57.50;;;;;;5032338;28;20037;-66
2023/05/13 06:51:31;;;;;;;8.55;5.78;;;20.40;57.00;;;;;;5030429;28;20044;-66
2023/05/13 06:53:57;;;;;;;8.50;6.45;;;20.60;56.50;;;;;;5027989;28;20087;-66
2023/05/13 06:56:23;;;;;;;9.48;5.85;;;20.70;54.80;;;;;;5032821;28;20041;-66
2023/05/13 06:58:49;;;;;;;9.07;5.53;;;20.80;54.00;;;;;;5032673;28;20374;-67
2023/05/13 07:01:16;;;;;;;6.75;5.63;;;20.80;54.40;;;;;;5032962;28;20051;-67
2023/05/13 07:03:42;;;;;;;8.40;5.20;;;20.90;54.30;;;;;;5026105;28;20108;-67
2023/05/13 07:06:08;;;;;;;8.65;4.97;;;21.00;53.40;;;;;;5023641;28;20045;-67
2023/05/13 07:08:34;;;;;;;9.73;6.43;;;21.10;53.50;;;;;;5012867;28;20041;-67
2023/05/13 07:10:59;;;;;;;8.18;5.75;;;21.30;53.70;;;;;;5014565;28;20077;-67
2023/05/13 07:13:25;;;;;;;9.40;5.85;;;21.30;52.60;;;;;;5032470;28;20392;-67
2023/05/13 07:15:51;;;;;;;6.63;5.35;;;21.40;51.80;;;;;;5032189;28;20084;-66
2023/05/13 07:18:17;;;;;;;6.32;5.18;;;21.40;51.90;;;;;;5027857;28;20073;-68
2023/05/13 07:20:43;;;;;;;8.52;5.40;;;21.40;51.60;;;;;;5017434;28;20042;-67
2023/05/13 07:23:08;;;;;;;7.40;5.20;;;21.40;51.90;;;;;;5017633;28;20042;-67
2023/05/13 07:25:34;;;;;;;6.95;5.18;;;21.50;51.40;;;;;;5027404;28;20045;-68
2023/05/13 07:28:00;;;;;;;7.60;4.15;;;21.60;51.70;;;;;;5013225;28;20401;-67
2023/05/13 07:30:26;;;;;;;7.40;4.93;;;21.80;51.40;;;;;;5011260;28;20412;-67
2023/05/13 07:32:51;;;;;;;9.90;5.30;;;21.90;51.60;;;;;;5014721;28;20041;-68
2023/05/13 07:35:17;;;;;;;8.55;5.45;;;22.10;51.50;;;;;;5014887;28;20144;-67
2023/05/13 07:37:43;;;;;;;6.82;4.50;;;22.20;51.40;;;;;;5028405;28;20037;-68
2023/05/13 07:40:10;;;;;;;10.45;5.30;;;22.40;50.70;;;;;;5015769;28;20045;-68
2023/05/13 07:42:36;;;;;;;7.93;4.95;;;22.50;50.30;;;;;;5031390;28;20124;-67
2023/05/13 07:45:03;;;;;;;8.13;4.15;;;22.60;49.90;;;;;;5031333;28;20136;-68
2023/05/13 07:47:30;;;;;;;7.30;5.13;;;22.70;50.20;;;;;;5031558;28;20045;-68
2023/05/13 07:49:56;;;;;;;7.50;4.78;;;22.90;49.30;;;;;;5015288;28;20132;-68
2023/05/13 07:52:22;;;;;;;7.47;4.50;;;23.00;48.60;;;;;;5026639;28;20396;-67
2023/05/13 07:54:48;;;;;;;7.95;4.32;;;23.10;48.30;;;;;;5019034;28;20112;-69
2023/05/13 07:57:22;;;;;;;6.97;4.30;;;23.20;47.40;;;;;;5015024;28;20045;-68
2023/05/13 07:59:48;;;;;;;8.82;5.00;;;23.20;45.70;;;;;;5005757;28;20065;-68
2023/05/13 08:02:14;;;;;;;6.40;3.90;;;22.90;45.80;;;;;;5022751;28;20042;-67
2023/05/13 08:04:40;;;;;;;6.10;4.47;;;22.80;46.50;;;;;;5031899;28;20045;-68
2023/05/13 08:07:06;;;;;;;6.90;4.55;;;22.80;46.70;;;;;;5031601;28;20489;-68
2023/05/13 08:09:31;;;;;;;8.13;3.58;;;22.80;46.70;;;;;;5031612;28;20046;-68
2023/05/13 08:11:57;;;;;;;8.65;4.43;;;22.90;46.30;;;;;;5026232;28;20087;-68
2023/05/13 08:14:23;;;;;;;8.93;4.03;;;23.00;46.50;;;;;;5030577;28;20045;-68
2023/05/13 08:16:48;;;;;;;5.75;3.38;;;23.00;46.20;;;;;;5031466;28;20045;-68
2023/05/13 08:19:14;;;;;;;5.60;4.22;;;23.10;45.90;;;;;;5031558;28;20045;-68
2023/05/13 08:21:40;;;;;;;6.95;4.28;;;23.10;45.80;;;;;;5011739;28;20503;-68
2023/05/13 08:24:06;;;;;;;5.28;4.00;;;23.20;45.50;;;;;;5011711;28;20120;-68
2023/05/13 08:26:32;;;;;;;11.85;5.47;;;23.30;45.10;;;;;;5016060;28;20037;-68
2023/05/13 08:28:59;;;;;;;8.30;3.70;;;23.40;45.50;;;;;;5001649;28;20042;-68
2023/05/13 08:31:25;;;;;;;8.13;4.07;;;23.50;44.20;;;;;;5024743;28;20117;-68
2023/05/13 08:33:52;;;;;;;4.88;3.67;;;23.60;44.40;;;;;;5020682;28;20485;-69
2023/05/13 08:36:18;;;;;;;7.13;4.05;;;23.70;44.20;;;;;;5016333;28;20050;-69
2023/05/13 08:38:44;;;;;;;5.50;3.50;;;23.80;43.20;;;;;;5035594;28;20046;-68
2023/05/13 08:41:14;;;;;;;5.85;3.72;;;23.80;42.80;;;;;;5024806;28;20037;-69
2023/05/13 08:43:45;;;;;;;4.82;3.13;;;23.80;43.30;;;;;;5020673;28;20073;-68
2023/05/13 08:46:11;;;;;;;6.65;4.00;;;23.80;43.50;;;;;;5020936;28;20051;-68
2023/05/13 08:48:41;;;;;;;6.93;4.00;;;23.80;42.90;;;;;;5022838;28;20100;-68
2023/05/13 08:51:08;;;;;;;7.47;4.13;;;23.90;42.90;;;;;;5007041;28;20045;-68
2023/05/13 08:53:35;;;;;;;8.07;3.42;;;24.00;43.90;;;;;;5013881;28;20150;-68
2023/05/13 08:56:01;;;;;;;7.30;3.45;;;24.10;42.70;;;;;;5030904;28;20520;-68
2023/05/13 08:58:27;;;;;;;7.25;3.05;;;24.20;42.70;;;;;;5014592;28;20045;-69
2023/05/13 09:00:53;;;;;;;6.45;3.28;;;24.40;43.00;;;;;;5031025;28;20040;-68
2023/05/13 09:03:20;;;;;;;6.28;3.42;;;24.50;42.20;;;;;;5020152;28;20602;-68
2023/05/13 09:05:46;;;;;;;6.03;3.10;;;24.60;41.90;;;;;;5011382;28;20558;-68
2023/05/13 09:08:12;;;;;;;6.18;3.25;;;24.80;40.90;;;;;;5018057;28;20076;-68
2023/05/13 09:10:39;;;;;;;7.18;3.03;;;24.80;39.50;;;;;;5031070;28;20132;-68
2023/05/13 09:13:05;;;;;;;5.93;3.22;;;24.90;40.00;;;;;;5016522;28;20038;-68
2023/05/13 09:15:31;;;;;;;6.18;2.83;;;25.00;39.60;;;;;;5034556;28;20052;-68
2023/05/13 09:18:05;;;;;;;5.82;3.15;;;25.10;40.30;;;;;;5034489;28;20049;-68
2023/05/13 09:20:31;;;;;;;;;;;25.20;39.90;;;;;;5019055;28;20113;-68
2023/05/13 09:22:59;;;;;;;4.35;2.80;;;25.20;40.50;;;;;;5022585;28;19996;-69
2023/05/13 09:25:26;;;;;;;8.00;2.97;;;25.20;39.10;;;;;;5017590;28;20046;-68
2023/05/13 09:27:54;;;;;;;6.15;2.63;;;25.30;39.70;;;;;;5020534;28;20038;-68
2023/05/13 09:30:20;;;;;;;4.78;3.25;;;25.30;38.70;;;;;;5021362;28;20054;-68
2023/05/13 09:33:13;;;;;;;5.95;2.95;;;25.40;38.50;;;;;;5034586;28;20120;-69
2023/05/13 09:35:43;;;;;;;4.57;2.97;;;25.40;38.20;;;;;;5034192;28;20104;-68
2023/05/13 09:38:13;;;;;;;5.03;2.70;;;25.50;38.10;;;;;;5032891;28;20179;-68
2023/05/13 09:40:39;;;;;;;11.07;3.10;;;25.50;38.20;;;;;;5015843;28;20394;-68
2023/05/13 09:43:08;;;;;;;6.63;2.42;;;25.60;38.10;;;;;;5015601;28;20042;-68
2023/05/13 09:45:35;;;;;;;4.43;2.72;;;25.60;37.60;;;;;;5015095;28;20044;-68
2023/05/13 09:48:01;;;;;;;5.15;2.55;;;25.60;36.50;;;;;;5030372;28;20490;-68
2023/05/13 09:50:27;;;;;;;3.55;2.28;;;25.60;36.30;;;;;;5014597;28;20124;-68
2023/05/13 09:52:53;;;;;;;5.72;2.40;;;25.60;36.50;;;;;;5001583;28;20442;-68
2023/05/13 09:55:18;;;;;;;5.13;2.67;;;25.60;36.30;;;;;;5001775;28;20539;-68
2023/05/13 09:57:45;;;;;;;5.72;2.78;;;25.60;36.40;;;;;;5012019;28;20029;-68
2023/05/13 10:00:12;;;;;;;6.18;3.03;;;25.70;35.70;;;;;;5018636;28;20119;-69
2023/05/13 10:02:38;;;;;;;4.85;2.35;;;25.60;36.10;;;;;;5031835;28;20072;-68
2023/05/13 10:05:07;;;;;;;6.90;2.83;;;25.50;36.10;;;;;;5005006;28;20130;-68
2023/05/13 10:07:34;;;;;;;5.40;2.97;;;25.50;35.90;;;;;;5014196;28;20552;-68
2023/05/13 10:10:02;;;;;;;4.55;3.08;;;25.40;36.40;;;;;;5031936;28;20049;-69
2023/05/13 10:12:30;;;;;;;3.78;2.60;;;25.40;37.00;;;;;;5016839;28;20041;-69
2023/05/13 10:14:57;;;;;;;6.00;3.00;;;25.40;36.60;;;;;;5022600;28;20579;-68
2023/05/13 10:17:24;;;;;;;5.80;2.90;;;25.40;37.30;;;;;;5024944;28;20037;-68
2023/05/13 10:19:53;;;;;;;4.82;2.92;;;25.40;36.90;;;;;;5026902;28;20047;-72
2023/05/13 10:22:38;;;;;;;6.78;2.88;;;25.40;37.40;;;;;;5023477;28;20064;-72
2023/05/13 10:25:06;;;;;;;4.63;3.22;;;25.40;36.80;;;;;;5020746;28;20543;-72
2023/05/13 10:27:32;;;;;;;4.95;3.22;;;25.40;36.70;;;;;;5026243;28;20500;-72
2023/05/13 10:30:00;;;;;;;5.30;2.97;;;25.40;36.30;;;;;;5007629;28;20053;-72
2023/05/13 10:32:30;;;;;;;4.45;2.80;;;25.40;37.20;;;;;;5023057;28;20489;-73
2023/05/13 10:35:12;;;;;;;6.95;3.03;;;25.40;36.80;;;;;;5020427;28;21369;-72
2023/05/13 10:37:44;;;;;;;6.65;3.38;;;25.40;36.20;;;;;;5022798;28;20095;-72
2023/05/13 10:40:43;;;;;;;7.50;2.78;;;25.30;36.10;;;;;;5026174;28;20045;-71
2023/05/13 10:43:28;;;;;;;6.57;2.78;;;25.30;36.30;;;;;;5024882;28;20492;-72
2023/05/13 10:46:03;;;;;;;4.57;2.78;;;25.30;36.80;;;;;;5026753;28;20060;-72
2023/05/13 10:48:49;;;;;;;4.30;2.75;;;25.30;36.30;;;;;;5025642;28;20053;-72
2023/05/13 10:51:21;;;;;;;6.45;2.53;;;25.40;36.20;;;;;;5026002;28;20052;-72
2023/05/13 10:53:49;;;;;;;6.10;2.80;;;25.40;35.80;;;;;;5008214;28;20049;-72
2023/05/13 10:56:18;;;;;;;4.60;2.75;;;25.40;35.50;;;;;;5032219;28;20037;-74
2023/05/13 10:58:58;;;;;;;6.45;2.75;;;25.30;34.60;;;;;;5026742;28;20060;-74
2023/05/13 11:01:30;;;;;;;5.68;2.90;;;25.20;34.50;;;;;;5026276;28;20038;-74
2023/05/13 11:03:59;;;;;;;5.15;3.00;;;25.10;34.20;;;;;;5020137;28;20076;-74
2023/05/13 11:06:33;;;;;;;4.10;2.60;;;25.00;33.10;;;;;;5020407;28;20046;-75
2023/05/13 11:08:58;;;;;;;5.20;2.83;;;24.90;33.60;;;;;;5028808;28;20160;-74
2023/05/13 11:11:28;;;;;;;3.33;2.40;;;24.90;33.90;;;;;;5023269;28;20084;-74
2023/05/13 11:14:12;;;;;;;6.85;2.95;;;24.80;33.90;;;;;;5021507;28;20033;-74
2023/05/13 11:16:43;;;;;;;4.88;2.90;;;24.80;34.60;;;;;;5006465;28;20048;-74
2023/05/13 11:19:19;;;;;;;5.10;3.13;;;24.80;34.20;;;;;;5020253;28;20041;-74
2023/05/13 11:21:51;;;;;;;5.38;3.00;;;24.80;34.60;;;;;;5020554;28;20124;-74
2023/05/13 11:24:19;;;;;;;7.28;3.00;;;24.80;35.10;;;;;;5010602;28;20128;-75
2023/05/13 11:26:48;;;;;;;5.93;2.78;;;24.80;34.80;;;;;;5014870;28;20045;-74
2023/05/13 11:29:25;;;;;;;11.25;3.03;;;24.80;35.30;;;;;;5031314;28;20045;-74
2023/05/13 11:31:56;;;;;;;5.63;3.20;;;24.90;35.80;;;;;;5031552;28;20515;-74
2023/05/13 11:34:22;;;;;;;7.00;2.85;;;24.90;35.10;;;;;;5025294;28;20117;-74
2023/05/13 11:36:50;;;;;;;5.22;2.90;;;24.90;35.20;;;;;;5012311;28;20042;-74
2023/05/13 11:39:21;;;;;;;4.50;2.70;;;24.90;35.40;;;;;;5029615;28;20132;-74
2023/05/13 11:41:49;;;;;;;4.72;2.67;;;24.90;35.40;;;;;;5030681;28;20110;-75
2023/05/13 11:44:17;;;;;;;7.57;2.70;;;25.00;35.00;;;;;;5031319;28;20076;-74
2023/05/13 11:46:50;;;;;;;3.20;2.90;;;25.00;34.60;;;;;;5007411;28;20052;-75
2023/05/13 11:49:42;;;;;;;5.97;2.50;;;25.00;33.70;;;;;;5028863;28;20037;-74
2023/05/13 11:52:10;;;;;;;3.03;2.13;;;25.00;34.40;;;;;;5015439;28;20029;-74
2023/05/13 11:54:52;;;;;;;4.43;2.70;;;25.00;33.20;;;;;;5031061;28;20080;-74
2023/05/13 11:57:19;;;;;;;3.65;2.60;;;25.00;32.40;;;;;;4997644;28;20045;-74
2023/05/13 12:00:01;;;;;;;3.55;2.38;;;25.00;32.50;;;;;;5022702;28;20115;-74
2023/05/13 12:02:29;;;;;;;3.85;2.42;;;25.00;32.80;;;;;;5014945;28;20397;-74
2023/05/13 12:04:55;;;;;;;4.13;2.63;;;25.10;33.30;;;;;;5016151;28;20109;-75
2023/05/13 12:07:25;;;;;;;4.22;2.22;;;25.10;33.30;;;;;;5031289;28;20132;-74
2023/05/13 12:09:54;;;;;;;6.25;2.78;;;25.10;33.80;;;;;;5031676;28;20048;-74
2023/05/13 12:12:20;;;;;;;4.80;2.20;;;25.20;33.60;;;;;;5029644;28;20042;-74
2023/05/13 12:14:49;;;;;;;4.65;2.10;;;25.20;33.10;;;;;;5014091;28;20034;-74
2023/05/13 12:17:16;;;;;;;5.70;2.33;;;25.20;33.20;;;;;;5013575;28;20045;-74
2023/05/13 12:20:04;;;;;;;6.50;2.30;;;25.20;32.00;;;;;;5031020;28;20076;-74
2023/05/13 12:22:30;;;;;;;4.35;2.10;;;25.20;32.20;;;;;;5000884;28;20045;-74
2023/05/13 12:24:59;;;;;;;4.90;2.67;;;25.20;32.20;;;;;;5006777;28;20104;-74
2023/05/13 12:27:26;;;;;;;4.80;2.38;;;25.30;32.70;;;;;;5014397;28;20445;-75
2023/05/13 12:29:54;;;;;;;2.83;2.30;;;25.30;32.00;;;;;;5009315;28;20046;-75
2023/05/13 12:32:20;;;;;;;4.10;1.75;;;25.30;32.00;;;;;;5020399;28;20107;-74
2023/05/13 12:34:50;;;;;;;6.40;2.67;;;25.30;31.80;;;;;;5013397;28;20049;-74
2023/05/13 12:37:17;;;;;;;2.75;1.70;;;25.30;32.20;;;;;;5006324;28;20038;-74
2023/05/13 12:39:43;;;;;;;5.00;2.22;;;25.20;32.60;;;;;;5011728;28;20041;-74
2023/05/13 12:42:16;;;;;;;5.68;2.53;;;25.20;32.50;;;;;;5011624;28;20073;-74
2023/05/13 12:44:45;;;;;;;7.00;2.50;;;25.20;32.60;;;;;;5026028;28;20045;-74